Time;durP1;ratioP1;P1;durP2;ratioP2;P2;SDS_P1;SDS_P2;PMS_P1;PMS_P2;Temp;Humidity;BMP_temperature;BMP_pressure;BME280_temperature;BME280_humidity;BME280_pressure;Samples;Min_cycle;Max_cycle;Signal;HPM_P1;HPM_P2
2022/04/13 00:00:32;;;;;;;11.68;10.27;;;;;;;12.47;92.99;101088.56;4950190;28;20412;-77
2022/04/13 00:03:02;;;;;;;12.00;10.50;;;;;;;12.45;93.36;101088.56;4951321;28;20062;-78
2022/04/13 00:05:32;;;;;;;15.30;10.40;;;;;;;12.45;92.91;101082.41;4951060;28;20504;-79
2022/04/13 00:08:05;;;;;;;12.60;11.02;;;;;;;12.44;93.59;101084.16;4967534;28;20690;-78
2022/04/13 00:10:35;;;;;;;15.40;11.52;;;;;;;12.43;94.24;101079.75;4953537;28;20039;-78
2022/04/13 00:13:04;;;;;;;14.07;10.40;;;;;;;12.40;94.27;101093.00;4929767;28;20059;-78
2022/04/13 00:15:33;;;;;;;12.95;11.32;;;;;;;12.39;94.93;101096.50;4951603;28;20558;-78
2022/04/13 00:18:08;;;;;;;13.93;10.90;;;;;;;12.36;94.98;101100.91;4951914;28;20035;-78
2022/04/13 00:20:37;;;;;;;13.25;10.40;;;;;;;12.32;94.99;101092.09;4933796;29;20043;-77
2022/04/13 00:23:07;;;;;;;14.00;11.30;;;;;;;12.28;96.18;101100.91;4950993;29;20062;-77
2022/04/13 00:25:38;;;;;;;14.98;11.10;;;;;;;12.23;96.40;101093.00;4960846;28;20070;-80
2022/04/13 00:28:09;;;;;;;11.90;10.70;;;;;;;12.19;96.57;101085.94;4952530;28;20062;-77
2022/04/13 00:30:38;;;;;;;12.68;11.23;;;;;;;12.16;96.88;101093.00;4925809;28;20508;-77
2022/04/13 00:33:08;;;;;;;14.07;11.13;;;;;;;12.11;96.85;101084.16;4952722;28;20405;-77
2022/04/13 00:35:37;;;;;;;13.20;11.25;;;;;;;12.07;96.78;101094.72;4957017;28;20051;-80
2022/04/13 00:38:06;;;;;;;13.85;10.32;;;;;;;12.02;97.72;101098.25;4952516;28;20051;-78
2022/04/13 00:40:42;;;;;;;12.18;10.55;;;;;;;11.97;97.81;101086.81;4951961;28;20404;-78
2022/04/13 00:43:10;;;;;;;12.95;11.18;;;;;;;11.92;97.98;101088.56;4951974;28;20043;-77
2022/04/13 00:45:38;;;;;;;14.30;11.15;;;;;;;11.86;97.70;101100.81;4920602;28;20043;-77
2022/04/13 00:48:09;;;;;;;13.15;11.75;;;;;;;11.82;98.29;101092.91;4953574;28;20055;-78
2022/04/13 00:50:38;;;;;;;13.32;11.80;;;;;;;11.77;98.67;101102.56;4948781;28;20054;-78
2022/04/13 00:53:13;;;;;;;14.57;11.15;;;;;;;11.70;99.04;101102.56;4950229;28;20058;-78
2022/04/13 00:55:43;;;;;;;;;;;;;;;11.65;100.00;101099.03;4948712;28;20062;-78
2022/04/13 00:58:17;;;;;;;16.40;11.50;;;;;;;11.61;99.56;101097.25;4944512;28;19945;-78
2022/04/13 01:00:50;;;;;;;14.20;11.65;;;;;;;11.58;99.66;101115.72;4912464;28;20047;-78
2022/04/13 01:03:24;;;;;;;16.65;12.40;;;;;;;11.52;100.00;101106.00;4951237;28;20362;-78
2022/04/13 01:05:53;;;;;;;12.65;11.07;;;;;;;11.49;100.00;101111.31;4949846;28;20259;-78
2022/04/13 01:08:22;;;;;;;18.70;11.98;;;;;;;11.47;100.00;101127.97;4934693;29;20063;-78
2022/04/13 01:10:50;;;;;;;15.43;11.88;;;;;;;11.44;100.00;101122.72;4949355;28;20054;-78
2022/04/13 01:13:20;;;;;;;15.52;12.10;;;;;;;11.43;100.00;101120.94;4951618;28;20050;-78
2022/04/13 01:15:49;;;;;;;12.35;11.05;;;;;;;11.40;100.00;101129.72;4892851;28;20651;-78
2022/04/13 01:18:18;;;;;;;16.67;12.30;;;;;;;11.37;100.00;101137.63;4950209;28;20047;-78
2022/04/13 01:20:56;;;;;;;13.43;11.80;;;;;;;11.32;100.00;101140.25;4962192;28;20536;-78
2022/04/13 01:23:25;;;;;;;13.45;11.45;;;;;;;11.28;100.00;101138.44;4950549;28;20282;-78
2022/04/13 01:25:55;;;;;;;15.32;12.70;;;;;;;11.24;100.00;101147.22;4955633;28;20234;-78
2022/04/13 01:28:23;;;;;;;13.77;12.35;;;;;;;11.20;100.00;101149.84;4961220;28;20043;-78
2022/04/13 01:30:57;;;;;;;13.82;11.95;;;;;;;11.17;100.00;101152.47;4911842;28;20379;-77
2022/04/13 01:33:29;;;;;;;14.18;11.57;;;;;;;11.14;100.00;101142.78;4949848;28;20501;-78
2022/04/13 01:36:01;;;;;;;14.27;11.48;;;;;;;11.11;100.00;101146.31;4947986;28;20135;-78
2022/04/13 01:38:30;;;;;;;16.48;12.90;;;;;;;11.09;100.00;101153.28;4940968;29;20370;-77
2022/04/13 01:40:59;;;;;;;16.15;12.77;;;;;;;11.06;100.00;101150.66;4915536;29;20051;-79
2022/04/13 01:43:27;;;;;;;14.80;12.10;;;;;;;11.03;100.00;101149.75;4946409;29;20070;-79
2022/04/13 01:45:57;;;;;;;13.55;11.75;;;;;;;11.01;100.00;101140.97;4933707;29;20035;-78
2022/04/13 01:48:25;;;;;;;15.60;12.90;;;;;;;10.97;100.00;101155.00;4902351;29;20059;-79
2022/04/13 01:50:54;;;;;;;17.60;13.30;;;;;;;10.92;100.00;101149.69;4945432;28;20047;-79
2022/04/13 01:53:22;;;;;;;14.27;11.85;;;;;;;10.86;100.00;101147.88;4931600;29;20392;-79
2022/04/13 01:55:53;;;;;;;14.27;12.77;;;;;;;10.85;100.00;101155.78;4933606;29;20054;-79
2022/04/13 01:58:22;;;;;;;14.60;12.23;;;;;;;10.82;100.00;101156.66;4970179;28;20050;-79
2022/04/13 02:00:54;;;;;;;16.13;12.63;;;;;;;10.80;100.00;101155.75;4952217;28;20074;-79
2022/04/13 02:03:24;;;;;;;15.80;12.65;;;;;;;10.77;100.00;101160.13;4908674;29;20054;-79
2022/04/13 02:05:54;;;;;;;15.80;12.55;;;;;;;10.74;100.00;101166.25;4948928;29;20035;-79
2022/04/13 02:08:23;;;;;;;14.23;12.15;;;;;;;10.70;100.00;101159.22;4948915;28;20066;-79
2022/04/13 02:10:51;;;;;;;15.43;12.38;;;;;;;10.68;100.00;101158.28;4964301;28;20568;-79
2022/04/13 02:13:22;;;;;;;13.93;12.45;;;;;;;10.64;100.00;101152.13;4934446;29;20051;-79
2022/04/13 02:15:51;;;;;;;15.98;11.93;;;;;;;10.61;100.00;101159.13;4963747;28;20157;-79
2022/04/13 02:18:20;;;;;;;15.63;12.02;;;;;;;10.59;100.00;101163.50;4911977;29;20039;-79
2022/04/13 02:20:48;;;;;;;15.85;12.70;;;;;;;10.57;100.00;101168.75;4948533;28;20161;-79
2022/04/13 02:23:17;;;;;;;15.70;12.05;;;;;;;10.56;100.00;101172.25;4950721;28;20043;-79
2022/04/13 02:25:45;;;;;;;16.17;11.57;;;;;;;10.54;100.00;101169.59;4929831;29;20050;-79
2022/04/13 02:28:13;;;;;;;14.50;11.75;;;;;;;10.52;100.00;101171.34;4935038;29;20392;-79
2022/04/13 02:30:42;;;;;;;13.15;11.43;;;;;;;10.53;100.00;101173.13;4956807;28;20043;-78
2022/04/13 02:33:15;;;;;;;17.40;12.30;;;;;;;10.53;100.00;101170.50;4930025;28;20054;-79
2022/04/13 02:35:43;;;;;;;15.38;12.23;;;;;;;10.52;100.00;101162.56;4947746;28;20046;-79
2022/04/13 02:38:11;;;;;;;14.43;11.35;;;;;;;10.50;100.00;101167.81;4951761;28;20404;-79
2022/04/13 02:40:40;;;;;;;16.33;11.38;;;;;;;10.48;100.00;101172.19;4947591;28;20500;-79
2022/04/13 02:43:08;;;;;;;17.88;11.77;;;;;;;10.47;100.00;101177.44;4952149;28;20074;-79
2022/04/13 02:45:36;;;;;;;12.27;10.98;;;;;;;10.45;100.00;101182.72;4938350;28;20048;-79
2022/04/13 02:48:05;;;;;;;14.25;11.75;;;;;;;10.45;100.00;101180.09;4915626;28;20051;-79
2022/04/13 02:50:35;;;;;;;13.88;10.52;;;;;;;10.46;100.00;101179.19;4950455;28;20120;-79
2022/04/13 02:53:03;;;;;;;11.57;9.93;;;;;;;10.46;100.00;101176.56;4949545;28;20051;-79
2022/04/13 02:55:32;;;;;;;12.63;10.90;;;;;;;10.46;100.00;101181.84;4948937;28;20408;-79
2022/04/13 02:58:01;;;;;;;12.35;11.05;;;;;;;10.43;100.00;101199.38;4949222;28;20284;-79
2022/04/13 03:00:29;;;;;;;13.30;11.15;;;;;;;10.40;100.00;101191.44;4948945;28;20397;-79
2022/04/13 03:02:58;;;;;;;15.57;10.65;;;;;;;10.38;100.00;101194.06;4901452;28;20114;-79
2022/04/13 03:05:27;;;;;;;14.30;11.68;;;;;;;10.34;100.00;101185.25;4949399;28;20055;-79
2022/04/13 03:07:55;;;;;;;16.40;11.25;;;;;;;10.32;100.00;101200.16;4963433;28;20072;-79
2022/04/13 03:10:24;;;;;;;18.13;11.85;;;;;;;10.30;100.00;101201.91;4952286;28;20423;-79
2022/04/13 03:12:52;;;;;;;13.48;10.70;;;;;;;10.28;100.00;101194.78;4948251;28;20090;-79
2022/04/13 03:15:22;;;;;;;13.70;10.68;;;;;;;10.27;100.00;101212.34;4967323;28;20055;-79
2022/04/13 03:17:51;;;;;;;14.45;10.60;;;;;;;10.27;100.00;101209.72;4953221;28;20043;-79
2022/04/13 03:20:20;;;;;;;12.98;10.93;;;;;;;10.28;100.00;101215.88;4912169;29;20047;-79
2022/04/13 03:22:50;;;;;;;14.80;11.73;;;;;;;10.29;100.00;101215.88;4949261;29;20055;-78
2022/04/13 03:25:18;;;;;;;12.37;10.20;;;;;;;10.29;100.00;101217.66;4920458;29;20048;-79
2022/04/13 03:27:47;;;;;;;11.25;10.05;;;;;;;10.28;100.00;101218.50;4942708;29;20603;-79
2022/04/13 03:30:16;;;;;;;12.05;10.65;;;;;;;10.29;100.00;101209.75;4955901;28;20062;-78
2022/04/13 03:32:45;;;;;;;17.20;10.10;;;;;;;10.32;100.00;101220.31;4932595;28;20059;-77
2022/04/13 03:35:13;;;;;;;13.45;10.30;;;;;;;10.31;100.00;101224.72;4922982;28;20523;-77
2022/04/13 03:37:42;;;;;;;12.40;10.25;;;;;;;10.30;100.00;101219.41;4948723;28;20047;-79
2022/04/13 03:40:12;;;;;;;11.35;9.68;;;;;;;10.31;100.00;101229.13;4968146;28;20055;-78
2022/04/13 03:42:41;;;;;;;13.88;11.00;;;;;;;10.32;100.00;101226.50;4950026;28;20059;-77
2022/04/13 03:45:13;;;;;;;17.63;9.80;;;;;;;10.34;100.00;101231.78;4949999;28;20084;-78
2022/04/13 03:47:42;;;;;;;12.15;9.88;;;;;;;10.37;100.00;101238.81;4948040;29;20329;-79
2022/04/13 03:50:10;;;;;;;11.00;9.40;;;;;;;10.41;100.00;101238.88;4952437;28;20047;-79
2022/04/13 03:52:39;;;;;;;13.52;10.20;;;;;;;10.44;100.00;101238.03;4901680;28;20058;-79
2022/04/13 03:55:09;;;;;;;15.10;10.23;;;;;;;10.47;100.00;101244.22;4950903;28;20059;-78
2022/04/13 03:57:37;;;;;;;12.90;10.40;;;;;;;10.50;100.00;101240.72;4948299;28;20043;-79
2022/04/13 04:00:08;;;;;;;12.10;10.00;;;;;;;10.52;100.00;101242.47;4946954;29;20066;-80
2022/04/13 04:02:40;;;;;;;17.40;10.80;;;;;;;10.54;100.00;101243.38;4931383;29;20373;-79
2022/04/13 04:05:08;;;;;;;13.63;10.00;;;;;;;10.56;100.00;101242.53;4969391;28;20051;-79
2022/04/13 04:07:38;;;;;;;12.07;10.27;;;;;;;10.53;100.00;101246.91;4929153;28;20444;-79
2022/04/13 04:10:07;;;;;;;12.48;10.57;;;;;;;10.56;100.00;101253.06;4969372;28;20055;-79
2022/04/13 04:12:37;;;;;;;16.83;9.60;;;;;;;10.54;100.00;101251.28;4950799;28;20043;-79
2022/04/13 04:15:09;;;;;;;12.38;9.32;;;;;;;10.53;100.00;101254.81;4946713;28;20054;-79
2022/04/13 04:17:40;;;;;;;14.75;10.35;;;;;;;10.53;100.00;101251.28;4952897;28;20062;-79
2022/04/13 04:20:09;;;;;;;12.55;10.30;;;;;;;10.52;100.00;101253.03;4954316;28;20054;-79
2022/04/13 04:22:37;;;;;;;13.65;10.70;;;;;;;10.52;100.00;101260.06;4909017;28;20047;-79
2022/04/13 04:25:08;;;;;;;18.10;11.27;;;;;;;10.52;100.00;101260.06;4953773;28;20047;-79
2022/04/13 04:27:36;;;;;;;17.75;10.45;;;;;;;10.53;100.00;101261.84;4952646;28;20408;-79
2022/04/13 04:30:05;;;;;;;13.93;10.23;;;;;;;10.55;100.00;101265.38;4952977;28;20522;-79
2022/04/13 04:32:33;;;;;;;13.20;10.20;;;;;;;10.56;100.00;101258.34;4935857;29;20548;-79
2022/04/13 04:35:04;;;;;;;15.02;11.02;;;;;;;10.58;100.00;101254.84;4936319;29;20050;-79
2022/04/13 04:37:33;;;;;;;;;;;;;;;10.61;100.00;101267.19;4929614;28;20047;-79
2022/04/13 04:40:01;;;;;;;15.85;12.68;;;;;;;10.61;100.00;101273.31;4951808;28;19923;-78
2022/04/13 04:42:30;;;;;;;20.77;13.43;;;;;;;10.62;100.00;101275.06;4952200;28;20397;-79
2022/04/13 04:44:59;;;;;;;17.63;12.60;;;;;;;10.64;100.00;101269.81;4918287;29;20170;-79
2022/04/13 04:47:27;;;;;;;19.27;13.32;;;;;;;10.65;100.00;101276.88;4962842;28;20055;-79
2022/04/13 04:49:55;;;;;;;14.98;11.98;;;;;;;10.67;100.00;101277.78;4959594;28;20086;-79
2022/04/13 04:52:24;;;;;;;16.98;11.77;;;;;;;10.68;100.00;101279.53;4912126;28;20052;-79
2022/04/13 04:54:52;;;;;;;16.33;10.88;;;;;;;10.69;100.00;101278.66;4931004;29;20059;-79
2022/04/13 04:57:20;;;;;;;14.25;10.73;;;;;;;10.68;100.00;101280.44;4935648;28;20035;-79
2022/04/13 04:59:49;;;;;;;16.83;11.35;;;;;;;10.69;100.00;101289.22;4969170;28;20927;-79
2022/04/13 05:02:17;;;;;;;14.30;10.95;;;;;;;10.68;100.00;101282.16;4907987;28;20086;-78
2022/04/13 05:04:46;;;;;;;17.10;11.20;;;;;;;10.68;100.00;101282.16;4950823;28;20063;-79
2022/04/13 05:07:14;;;;;;;16.60;12.43;;;;;;;10.67;100.00;101293.59;4923977;28;20048;-79
2022/04/13 05:09:46;;;;;;;20.35;12.93;;;;;;;10.65;100.00;101298.84;4954769;28;20039;-78
2022/04/13 05:12:14;;;;;;;19.42;12.27;;;;;;;10.66;100.00;101303.25;4948709;28;20062;-78
2022/04/13 05:14:42;;;;;;;13.20;11.75;;;;;;;10.66;100.00;101304.97;4936737;29;20385;-79
2022/04/13 05:17:11;;;;;;;15.25;12.43;;;;;;;10.65;100.00;101304.13;4936838;28;20058;-79
2022/04/13 05:19:40;;;;;;;16.13;12.13;;;;;;;10.65;100.00;101309.38;4944678;28;20054;-79
2022/04/13 05:22:09;;;;;;;23.20;14.02;;;;;;;10.67;100.00;101309.41;4923619;28;20420;-78
2022/04/13 05:24:37;;;;;;;18.25;12.80;;;;;;;10.68;100.00;101314.69;4940217;28;20047;-79
2022/04/13 05:27:07;;;;;;;18.60;14.00;;;;;;;10.72;100.00;101318.25;4951402;28;20074;-79
2022/04/13 05:29:36;;;;;;;18.05;12.93;;;;;;;10.75;100.00;101315.63;4940050;28;20036;-79
2022/04/13 05:32:04;;;;;;;18.67;12.30;;;;;;;10.78;100.00;101317.44;4956675;28;20058;-79
2022/04/13 05:34:33;;;;;;;19.90;12.07;;;;;;;10.81;100.00;101325.34;4924558;29;20047;-79
2022/04/13 05:37:01;;;;;;;17.27;13.43;;;;;;;10.83;100.00;101324.50;4934053;29;20055;-78
2022/04/13 05:39:30;;;;;;;15.95;12.52;;;;;;;10.87;100.00;101325.44;4927558;28;20501;-79
2022/04/13 05:41:59;;;;;;;19.08;13.07;;;;;;;10.90;100.00;101328.06;4932046;28;20063;-78
2022/04/13 05:44:27;;;;;;;21.67;12.98;;;;;;;10.94;100.00;101340.41;4937088;28;20044;-78
2022/04/13 05:46:56;;;;;;;16.33;12.55;;;;;;;10.99;100.00;101336.06;4920108;28;20039;-78
2022/04/13 05:49:24;;;;;;;16.25;12.38;;;;;;;11.02;100.00;101336.13;4947368;29;20249;-78
2022/04/13 05:51:53;;;;;;;23.25;12.70;;;;;;;11.08;100.00;101345.84;4926004;28;20527;-79
2022/04/13 05:54:21;;;;;;;20.73;13.45;;;;;;;11.11;100.00;101343.22;4926574;28;20248;-78
2022/04/13 05:56:50;;;;;;;15.55;12.10;;;;;;;11.15;100.00;101346.75;4926049;29;20490;-78
2022/04/13 05:59:24;;;;;;;15.23;12.40;;;;;;;11.20;100.00;101345.06;4933277;29;20171;-78
2022/04/13 06:01:53;;;;;;;18.45;12.45;;;;;;;11.24;100.00;101352.13;4942319;28;20051;-78
2022/04/13 06:04:23;;;;;;;17.60;12.73;;;;;;;11.26;100.00;101351.25;4922429;28;20512;-77
2022/04/13 06:06:51;;;;;;;18.27;12.68;;;;;;;11.30;100.00;101363.63;4937471;28;20047;-78
2022/04/13 06:09:22;;;;;;;21.00;12.52;;;;;;;11.34;100.00;101363.63;4920760;28;20051;-78
2022/04/13 06:11:50;;;;;;;14.60;12.93;;;;;;;11.38;100.00;101349.59;4925159;29;20055;-78
2022/04/13 06:14:18;;;;;;;21.77;13.60;;;;;;;11.41;100.00;101361.06;4945173;28;20047;-78
2022/04/13 06:16:47;;;;;;;23.45;13.23;;;;;;;11.44;100.00;101361.09;4939541;28;20047;-78
2022/04/13 06:19:15;;;;;;;19.60;13.02;;;;;;;11.48;100.00;101362.88;4936311;28;20047;-78
2022/04/13 06:21:44;;;;;;;17.17;12.93;;;;;;;11.51;100.00;101362.00;4947885;28;20055;-78
2022/04/13 06:24:12;;;;;;;19.30;12.35;;;;;;;11.58;100.00;101360.31;4927021;28;20260;-78
2022/04/13 06:26:41;;;;;;;19.98;13.05;;;;;;;11.63;100.00;101369.16;4936776;28;20055;-79
2022/04/13 06:29:09;;;;;;;18.55;12.02;;;;;;;11.69;100.00;101371.81;4919731;28;20044;-78
2022/04/13 06:31:37;;;;;;;17.05;12.32;;;;;;;11.75;100.00;101387.69;4931896;28;20058;-78
2022/04/13 06:34:06;;;;;;;19.67;13.23;;;;;;;11.82;100.00;101399.19;4934723;28;20043;-78
2022/04/13 06:36:34;;;;;;;24.25;13.45;;;;;;;11.87;100.00;101401.00;4943129;28;20055;-78
2022/04/13 06:39:02;;;;;;;15.95;12.65;;;;;;;11.95;100.00;101397.56;4925116;28;20039;-78
2022/04/13 06:41:31;;;;;;;18.23;12.25;;;;;;;12.06;100.00;101402.03;4922351;28;20293;-78
2022/04/13 06:44:00;;;;;;;17.88;12.70;;;;;;;12.23;100.00;101409.16;4946606;28;20067;-78
2022/04/13 06:46:28;;;;;;;21.75;12.32;;;;;;;12.39;100.00;101408.34;4946949;28;20054;-78
2022/04/13 06:48:58;;;;;;;19.23;13.73;;;;;;;12.60;100.00;101415.50;4930657;28;20039;-78
2022/04/13 06:51:26;;;;;;;16.25;12.13;;;;;;;12.86;100.00;101420.00;4919362;29;20538;-78
2022/04/13 06:53:55;;;;;;;17.70;12.75;;;;;;;13.08;100.00;101426.25;4924690;28;20071;-78
2022/04/13 06:56:23;;;;;;;20.58;11.45;;;;;;;13.17;100.00;101431.53;4932053;28;20257;-78
2022/04/13 06:58:52;;;;;;;21.38;12.85;;;;;;;13.22;100.00;101434.19;4936766;28;20043;-78
2022/04/13 07:01:22;;;;;;;22.73;12.68;;;;;;;13.25;100.00;101442.13;4934457;29;20058;-76
2022/04/13 07:03:51;;;;;;;20.48;13.18;;;;;;;13.24;100.00;101440.38;4927068;28;20051;-75
2022/04/13 07:06:20;;;;;;;19.58;12.73;;;;;;;13.26;100.00;101442.13;4926193;28;20047;-76
2022/04/13 07:09:08;;;;;;;22.80;13.30;;;;;;;13.29;100.00;101435.06;4918343;28;20055;-76
2022/04/13 07:11:36;;;;;;;17.17;13.20;;;;;;;13.31;100.00;101443.94;4943096;29;20436;-75
2022/04/13 07:14:05;;;;;;;20.92;13.80;;;;;;;13.31;100.00;101444.84;4927932;28;20060;-75
2022/04/13 07:16:33;;;;;;;19.20;13.40;;;;;;;13.41;100.00;101443.06;4936646;28;20054;-75
2022/04/13 07:19:02;;;;;;;22.63;13.90;;;;;;;13.49;100.00;101446.59;4929911;28;20055;-76
2022/04/13 07:21:30;;;;;;;21.27;12.90;;;;;;;13.60;100.00;101447.50;4930609;28;20265;-75
2022/04/13 07:24:18;;;;;;;22.55;13.07;;;;;;;13.81;100.00;101458.97;4939622;29;20126;-75
2022/04/13 07:26:47;;;;;;;17.83;13.35;;;;;;;13.97;100.00;101447.47;4911124;28;20043;-76
2022/04/13 07:29:15;;;;;;;26.27;14.32;;;;;;;14.17;100.00;101449.22;4931704;28;20066;-75
2022/04/13 07:31:43;;;;;;;22.73;13.52;;;;;;;14.30;100.00;101450.94;4942258;28;20047;-75
2022/04/13 07:34:12;;;;;;;23.42;13.02;;;;;;;14.45;100.00;101444.72;4927026;28;20274;-75
2022/04/13 07:36:40;;;;;;;23.13;13.77;;;;;;;14.58;100.00;101458.84;4949348;28;20047;-75
2022/04/13 07:39:09;;;;;;;19.92;12.40;;;;;;;14.73;100.00;101442.88;4933302;28;20051;-76
2022/04/13 07:41:37;;;;;;;17.50;12.05;;;;;;;14.90;100.00;101464.03;4898847;29;20070;-75
2022/04/13 07:44:06;;;;;;;17.95;12.13;;;;;;;15.03;100.00;101464.84;4926568;28;20059;-75
2022/04/13 07:46:34;;;;;;;17.63;10.55;;;;;;;15.10;100.00;101471.00;4951340;28;20058;-75
2022/04/13 07:49:05;;;;;;;19.80;11.25;;;;;;;15.20;100.00;101467.41;4934719;28;20116;-75
2022/04/13 07:51:34;;;;;;;16.55;11.50;;;;;;;15.33;100.00;101477.06;4936105;28;20047;-75
2022/04/13 07:54:02;;;;;;;15.95;10.82;;;;;;;15.46;100.00;101480.47;4908634;29;20055;-75
2022/04/13 07:56:51;;;;;;;14.82;10.77;;;;;;;15.59;100.00;101482.19;4935607;28;20047;-75
2022/04/13 07:59:19;;;;;;;15.25;10.48;;;;;;;15.66;100.00;101480.34;4926539;28;20055;-75
2022/04/13 08:01:47;;;;;;;15.20;8.00;;;;;;;15.73;100.00;101484.75;4930959;29;20043;-75
2022/04/13 08:04:16;;;;;;;15.23;8.52;;;;;;;15.78;100.00;101492.69;4939840;28;20191;-74
2022/04/13 08:06:55;;;;;;;12.73;8.50;;;;;;;15.77;100.00;101486.50;4932330;28;20158;-74
2022/04/13 08:09:24;;;;;;;17.98;8.73;;;;;;;15.74;100.00;101491.81;4950040;28;20686;-74
2022/04/13 08:11:52;;;;;;;12.52;8.90;;;;;;;15.70;100.00;101506.00;4919106;28;20389;-74
2022/04/13 08:14:22;;;;;;;16.05;9.57;;;;;;;15.60;100.00;101505.19;4916178;28;20058;-74
2022/04/13 08:16:50;;;;;;;18.35;10.65;;;;;;;15.51;100.00;101510.56;4940185;28;20046;-74
2022/04/13 08:19:19;;;;;;;17.70;11.45;;;;;;;15.40;100.00;101515.94;4941502;28;20496;-76
2022/04/13 08:21:47;;;;;;;16.15;10.85;;;;;;;15.27;100.00;101518.69;4937921;28;20043;-76
2022/04/13 08:24:19;;;;;;;14.30;10.57;;;;;;;15.12;100.00;101523.19;4930366;28;20052;-75
2022/04/13 08:26:47;;;;;;;18.13;10.98;;;;;;;14.98;100.00;101525.91;4942986;28;20047;-76
2022/04/13 08:29:15;;;;;;;15.35;11.65;;;;;;;14.90;100.00;101521.53;4917063;28;20051;-76
2022/04/13 08:31:44;;;;;;;17.48;11.27;;;;;;;14.86;100.00;101530.34;4938161;28;20531;-75
2022/04/13 08:34:12;;;;;;;17.60;12.93;;;;;;;14.84;100.00;101529.50;4941929;28;20154;-74
2022/04/13 08:36:41;;;;;;;17.40;12.27;;;;;;;14.80;100.00;101533.91;4914697;29;20043;-78
2022/04/13 08:39:13;;;;;;;15.48;11.23;;;;;;;14.77;100.00;101526.88;4953808;28;20404;-79
2022/04/13 08:41:51;;;;;;;18.42;11.98;;;;;;;14.81;100.00;101525.09;4941860;29;20040;-78
2022/04/13 08:44:39;;;;;;;20.55;12.13;;;;;;;14.84;100.00;101518.88;4916669;28;20345;-78
2022/04/13 08:47:17;;;;;;;18.77;12.23;;;;;;;14.84;100.00;101529.50;4931927;28;20074;-79
2022/04/13 08:49:50;;;;;;;20.17;11.98;;;;;;;14.90;100.00;101532.13;4951414;28;20055;-79
2022/04/13 08:52:23;;;;;;;15.15;10.68;;;;;;;15.01;100.00;101530.31;4936497;28;20265;-79
2022/04/13 08:55:03;;;;;;;15.43;12.13;;;;;;;15.11;100.00;101532.03;4944137;28;20397;-80
2022/04/13 08:57:46;;;;;;;18.80;12.27;;;;;;;15.17;100.00;101532.00;4949680;28;20051;-78
2022/04/13 09:00:17;;;;;;;19.48;11.48;;;;;;;15.27;100.00;101534.63;4924033;28;20362;-79
2022/04/13 09:03:04;;;;;;;14.57;10.77;;;;;;;15.45;100.00;101538.94;4941056;28;20074;-79
2022/04/13 09:05:43;;;;;;;16.50;11.90;;;;;;;15.59;100.00;101543.28;4953166;28;20035;-79
2022/04/13 09:08:19;;;;;;;14.95;11.32;;;;;;;15.72;100.00;101536.09;4941214;28;20293;-79
2022/04/13 09:10:51;;;;;;;18.35;11.05;;;;;;;15.86;100.00;101538.69;4950251;28;20059;-81
2022/04/13 09:13:21;;;;;;;13.93;10.73;;;;;;;15.99;100.00;101539.47;4946815;28;20666;-79
2022/04/13 09:15:51;;;;;;;17.75;11.70;;;;;;;16.11;100.00;101549.13;4909551;29;20412;-79
2022/04/13 09:18:19;;;;;;;17.23;11.85;;;;;;;16.14;100.00;101546.44;4929303;28;20361;-78
2022/04/13 09:20:48;;;;;;;14.43;11.73;;;;;;;16.21;100.00;101553.47;4931953;29;20042;-79
2022/04/13 09:23:20;;;;;;;17.15;10.98;;;;;;;16.30;100.00;101556.03;4931734;28;20276;-79
2022/04/13 09:25:51;;;;;;;18.42;11.20;;;;;;;16.42;100.00;101560.34;4943040;28;20420;-79
2022/04/13 09:28:20;;;;;;;16.83;10.65;;;;;;;16.49;100.00;101556.75;4971406;28;20246;-80
2022/04/13 09:30:49;;;;;;;15.00;11.27;;;;;;;16.50;100.00;101558.53;4948728;28;20052;-79
2022/04/13 09:33:17;;;;;;;15.10;9.88;;;;;;;16.46;100.00;101558.56;4933702;28;20253;-79
2022/04/13 09:35:46;;;;;;;16.25;11.50;;;;;;;16.43;100.00;101569.25;4932739;29;20492;-79
2022/04/13 09:38:16;;;;;;;16.80;10.40;;;;;;;16.48;100.00;101564.75;4950677;28;20055;-80
2022/04/13 09:40:44;;;;;;;13.37;10.37;;;;;;;16.57;100.00;101551.34;4941733;28;20529;-80
2022/04/13 09:43:19;;;;;;;15.10;10.90;;;;;;;16.65;100.00;101557.47;4956387;28;20981;-80
2022/04/13 09:45:50;;;;;;;15.70;10.82;;;;;;;16.74;100.00;101559.16;4944638;28;20415;-79
2022/04/13 09:48:20;;;;;;;13.35;9.75;;;;;;;16.85;100.00;101553.75;4919263;28;20686;-79
2022/04/13 09:50:50;;;;;;;;;;;;;;;16.93;100.00;101557.19;4925500;28;20047;-78
2022/04/13 09:53:20;;;;;;;14.68;10.07;;;;;;;17.00;100.00;101564.22;4933112;28;20792;-79
2022/04/13 09:56:02;;;;;;;13.75;10.02;;;;;;;17.07;100.00;101573.91;4947097;28;20050;-79
2022/04/13 09:58:32;;;;;;;13.27;9.85;;;;;;;17.18;100.00;101570.19;4931060;29;20062;-79
2022/04/13 10:01:02;;;;;;;17.33;9.43;;;;;;;17.29;100.00;101563.81;4945420;28;20043;-79
2022/04/13 10:03:34;;;;;;;12.73;9.13;;;;;;;17.37;100.00;101565.50;4902623;29;20523;-79
2022/04/13 10:06:02;;;;;;;17.55;10.50;;;;;;;17.41;100.00;101572.56;4932970;28;20039;-79
2022/04/13 10:08:31;;;;;;;13.35;8.43;;;;;;;17.43;100.00;101566.31;4930203;29;20058;-79
2022/04/13 10:11:00;;;;;;;11.88;7.88;;;;;;;17.47;100.00;101573.38;4907087;28;20051;-78
2022/04/13 10:13:36;;;;;;;12.35;8.43;;;;;;;17.53;100.00;101573.28;4947062;28;20065;-78
2022/04/13 10:16:07;;;;;;;10.48;7.40;;;;;;;17.61;100.00;101567.84;4943833;28;20382;-79
2022/04/13 10:18:58;;;;;;;10.98;6.90;;;;;;;17.69;100.00;101567.72;4908527;29;20043;-80
2022/04/13 10:22:00;;;;;;;11.00;7.63;;;;;;;17.78;100.00;101569.38;4929041;28;20047;-79
2022/04/13 10:24:36;;;;;;;9.85;6.80;;;;;;;17.84;100.00;101574.59;4916318;28;20055;-78
2022/04/13 10:27:10;;;;;;;10.43;7.03;;;;;;;17.91;99.65;101561.19;4930014;29;20043;-79
2022/04/13 10:29:47;;;;;;;11.55;6.93;;;;;;;17.98;99.63;101566.44;4965447;28;20059;-78
2022/04/13 10:32:18;;;;;;;13.57;8.25;;;;;;;18.03;99.80;101565.44;4948933;28;20265;-80
2022/04/13 10:34:52;;;;;;;11.77;8.02;;;;;;;18.05;98.79;101565.41;4925491;28;20046;-84
2022/04/13 10:37:23;;;;;;;9.80;6.05;;;;;;;18.04;97.28;101569.00;4946251;28;20690;-81
2022/04/13 10:39:58;;;;;;;11.13;6.60;;;;;;;17.97;96.68;101576.22;4928952;28;20055;-82
2022/04/13 10:42:30;;;;;;;11.27;7.10;;;;;;;17.89;96.88;101579.00;4933777;29;20048;-86
2022/04/13 10:45:04;;;;;;;8.90;6.50;;;;;;;17.83;96.18;101568.41;4938547;29;20051;-83
2022/04/13 10:47:58;;;;;;;14.45;6.00;;;;;;;17.82;96.79;101566.63;4948316;28;20055;-82
2022/04/13 10:50:41;;;;;;;11.32;5.90;;;;;;;17.87;97.17;101575.47;4896952;28;20488;-81
2022/04/13 10:53:27;;;;;;;9.05;5.90;;;;;;;17.95;97.41;101578.00;4929983;29;20337;-82
2022/04/13 10:56:02;;;;;;;12.43;5.80;;;;;;;18.13;97.29;101571.53;4945889;28;20043;-79
2022/04/13 10:58:36;;;;;;;9.07;6.13;;;;;;;18.33;96.13;101573.81;4943313;29;20060;-80
2022/04/13 11:01:11;;;;;;;16.05;6.22;;;;;;;18.51;95.87;101577.97;4928964;29;20104;-80
2022/04/13 11:03:42;;;;;;;12.43;6.00;;;;;;;18.68;95.48;101580.34;4903728;29;20036;-80
2022/04/13 11:06:11;;;;;;;8.55;5.45;;;;;;;18.77;93.55;101585.50;4920385;28;20039;-80
2022/04/13 11:08:46;;;;;;;9.65;5.88;;;;;;;18.86;93.25;101585.31;4934698;29;20055;-79
2022/04/13 11:11:20;;;;;;;15.43;5.50;;;;;;;18.98;93.00;101583.31;4957130;28;20044;-79
2022/04/13 11:13:50;;;;;;;8.90;5.35;;;;;;;19.00;92.16;101597.56;4966655;28;20032;-81
2022/04/13 11:16:24;;;;;;;7.95;5.95;;;;;;;19.01;91.59;101588.63;4965893;28;20243;-80
2022/04/13 11:19:05;;;;;;;8.52;5.55;;;;;;;18.91;90.56;101603.06;4953426;28;20055;-82